Latest Weather Observations for Middle Point

IDD60801

Issued at 3:01 pm CST Friday 6 March 2015 (issued every 30 minutes, with the page automatically refreshed every 10 minutes)

About weather observations | Map of weather stations | Latest weather observations for NT | Other Formats
Station Details ID: 014041 Name: MIDDLE POINT Lat: -12.61 Lon: 131.30 Height: 14.1 m
Data from the previous 72 hours. | See also: Recent months at Middle Point
Date/Time
CST
Temp
°C
App
Temp
°C
Dew
Point
Rel
Hum
%
Delta-T
°C
Wind Press
QNH
hPa
Press
MSL
hPa
Rain
since 9 am
mm
Dir
 
Spd
km/h
Gust
km/h
Spd
kts
Gust
kts
06/03:00pm 35.5 39.5 22.8 47 8.8 NNE 6 13 3 7 1004.4 1004.3 0.0
06/02:30pm 35.4 38.6 20.5 41 10.0 W 4 11 2 6 1005.1 1005.0 0.0
06/02:00pm 34.0 37.7 21.4 47 8.5 NW 4 9 2 5 1005.6 1005.5 0.0
06/01:30pm 34.5 38.0 21.9 48 8.6 WNW 6 11 3 6 1006.0 1005.9 0.0
06/01:00pm 34.4 38.6 23.1 51 7.8 SSE 6 11 3 6 1006.4 1006.3 0.0
06/12:30pm 34.1 38.1 23.8 55 7.2 W 9 15 5 8 1006.8 1006.7 0.0
06/12:00pm 33.2 36.3 23.5 56 6.7 WSW 13 17 7 9 1007.3 1007.2 0.0
06/11:30am 33.1 37.1 25.1 63 5.7 SW 13 24 7 13 1007.3 1007.2 0.0
06/11:00am 31.5 35.5 24.4 66 5.0 WSW 11 17 6 9 1007.8 1007.7 0.0
06/10:30am 31.3 35.8 25.2 70 4.3 WSW 11 20 6 11 1008.1 1008.0 0.0
06/10:00am 30.5 34.5 25.1 73 3.8 SW 13 19 7 10 1008.0 1007.9 0.0
06/09:30am 29.6 34.7 24.9 76 3.3 WSW 7 11 4 6 1008.0 1007.9 0.0
06/09:00am 29.1 34.6 24.7 77 3.1 WSW 4 7 2 4 1007.9 1007.8 0.2
06/08:30am 27.7 33.5 23.9 80 2.6 CALM 0 0 0 0 1007.7 1007.6 0.2
06/08:00am 26.2 31.6 23.3 84 2.0 CALM 0 0 0 0 1007.5 1007.4 0.2
06/07:30am 25.2 30.7 23.4 90 1.2 CALM 0 0 0 0 1007.4 1007.3 0.2
06/07:00am 24.9 30.2 23.1 90 1.2 CALM 0 0 0 0 1007.1 1007.0 0.2
06/06:30am 24.9 30.2 23.1 90 1.2 CALM 0 0 0 0 1006.8 1006.7 0.2
06/06:00am 24.8 30.0 22.9 89 1.3 CALM 0 0 0 0 1006.8 1006.7 0.2
06/05:30am 24.6 29.7 22.7 89 1.3 CALM 0 0 0 0 1006.6 1006.5 0.2
06/05:00am 24.4 29.5 22.7 90 1.1 CALM 0 0 0 0 1006.7 1006.6 0.2
06/04:30am 24.2 29.2 22.5 90 1.1 CALM 0 0 0 0 1006.8 1006.7 0.2
06/04:00am 24.2 29.2 22.5 90 1.1 CALM 0 0 0 0 1006.6 1006.5 0.2
06/03:30am 24.3 28.9 22.4 89 1.3 WNW 2 4 1 2 1007.0 1006.9 0.2
06/03:00am 24.3 29.0 22.6 90 1.1 WNW 2 4 1 2 1007.1 1007.0 0.2
06/02:30am 24.4 29.2 22.1 87 1.5 CALM 0 0 0 0 1007.3 1007.2 0.2
06/02:00am 24.3 28.1 21.6 85 1.8 NW 4 7 2 4 1007.7 1007.6 0.2
06/01:30am 24.5 27.2 21.4 83 2.1 NNW 9 11 5 6 1008.2 1008.1 0.2
06/01:00am 24.5 27.8 21.4 83 2.0 NNW 6 6 3 3 1008.5 1008.4 0.2
06/12:30am 25.2 27.6 20.9 77 2.8 NNE 9 11 5 6 1008.7 1008.6 0.2
06/12:00am 25.2 28.9 22.5 85 1.8 NNE 7 9 4 5 1008.8 1008.7 0.2
 
Date/Time
CST
Temp
°C
App
Temp
°C
Dew
Point
Rel
Hum
%
Delta-T
°C
Wind Press
QNH
hPa
Press
MSL
hPa
Rain
since 9 am
mm
Dir
 
Spd
km/h
Gust
km/h
Spd
kts
Gust
kts
05/11:30pm 25.8 29.4 23.1 85 1.8 N 9 15 5 8 1009.0 1008.9 0.2
05/11:00pm 26.9 32.2 24.9 89 1.4 NNW 6 17 3 9 1008.8 1008.7 0.2
05/10:30pm 26.8 31.9 24.6 88 1.5 WNW 6 7 3 4 1008.2 1008.1 0.2
05/10:00pm 27.1 32.2 24.7 87 1.7 W 6 7 3 4 1008.0 1007.9 0.2
05/09:30pm 27.3 32.2 24.6 85 1.9 NW 7 11 4 6 1008.0 1007.9 0.2
05/09:00pm 27.5 32.1 24.7 85 2.0 NW 9 13 5 7 1007.8 1007.7 0.2
05/08:30pm 27.7 32.4 24.3 82 2.4 NW 7 9 4 5 1007.4 1007.3 0.2
05/08:00pm 28.6 32.9 24.2 77 3.1 NW 9 11 5 6 1007.1 1007.0 0.2
05/07:30pm 29.5 32.8 23.9 72 3.9 NW 13 19 7 10 1006.4 1006.3 0.2
05/07:00pm 30.5 34.5 24.4 70 4.3 NNW 11 19 6 10 1006.1 1006.0 0.2
05/06:30pm 31.6 36.4 24.2 65 5.2 NNW 6 7 3 4 1005.4 1005.3 0.2
05/06:00pm 33.6 38.9 23.0 54 7.3 CALM 0 0 0 0 1005.0 1004.9 0.2
05/05:30pm 34.2 38.1 21.9 48 8.4 ENE 4 6 2 3 1004.9 1004.8 0.2
05/05:00pm 34.3 37.7 21.7 47 8.6 NNE 6 9 3 5 1005.0 1004.9 0.2
05/04:30pm 36.0 40.0 21.4 42 10.0 E 2 9 1 5 1004.9 1004.8 0.2
05/04:00pm 35.0 37.8 21.6 45 9.1 ESE 9 17 5 9 1005.0 1004.9 0.2
05/03:30pm 34.7 37.0 20.6 43 9.5 NE 9 15 5 8 1005.2 1005.1 0.2
05/03:00pm 35.1 38.7 23.1 49 8.3 E 9 17 5 9 1005.5 1005.4 0.2
05/02:30pm 34.9 38.4 22.2 47 8.7 ESE 7 15 4 8 1006.2 1006.1 0.2
05/02:00pm 35.0 39.0 22.7 49 8.5 ESE 6 11 3 6 1006.4 1006.3 0.2
05/01:30pm 34.6 38.5 22.6 49 8.3 SE 6 13 3 7 1006.9 1006.8 0.2
05/01:00pm 33.9 38.0 23.3 54 7.4 E 7 13 4 7 1007.6 1007.5 0.2
05/12:30pm 33.8 38.4 24.1 57 6.8 SSE 7 13 4 7 1008.0 1007.9 0.2
05/12:00pm 33.3 37.9 24.2 59 6.4 S 7 11 4 6 1008.1 1008.0 0.2
05/11:30am 32.4 36.3 23.6 59 6.1 WSW 9 15 5 8 1008.2 1008.1 0.2
05/11:00am 32.8 38.3 25.6 66 5.1 SSW 7 11 4 6 1008.4 1008.3 0.2
05/10:30am 31.5 36.3 24.4 66 5.0 WSW 7 15 4 8 1008.5 1008.4 0.2
05/10:00am 30.4 34.6 24.1 69 4.4 WSW 9 17 5 9 1008.7 1008.6 0.0
05/09:30am 29.4 34.3 24.7 76 3.3 SW 7 11 4 6 1009.1 1009.0 0.0
05/09:00am 28.5 33.9 24.5 79 2.8 S 4 7 2 4 1009.1 1009.0 11.6
05/08:30am 27.6 33.1 23.4 78 2.9 CALM 0 0 0 0 1009.0 1008.9 11.6
05/08:00am 26.7 32.3 24.2 86 1.7 SSE 2 4 1 2 1008.7 1008.6 11.6
05/07:30am 25.5 30.8 24.3 93 0.8 SE 4 4 2 2 1008.7 1008.6 11.6
05/07:00am 24.4 29.0 23.2 93 0.8 SSE 4 4 2 2 1008.4 1008.3 11.6
05/06:30am 24.2 29.4 22.8 92 0.9 CALM 0 4 0 2 1008.5 1008.4 11.6
05/06:00am 24.4 29.7 23.0 92 0.9 CALM 0 0 0 0 1008.4 1008.3 11.6
05/05:30am 24.5 29.8 23.1 92 0.9 CALM 0 0 0 0 1008.0 1007.9 11.6
05/05:00am 24.5 29.8 23.1 92 0.9 CALM 0 0 0 0 1008.1 1008.0 11.6
05/04:30am 24.6 30.1 23.4 93 0.8 CALM 0 0 0 0 1008.0 1007.9 11.6
05/04:00am 24.3 28.9 23.1 93 0.8 WNW 4 6 2 3 1007.8 1007.7 11.6
05/03:30am 24.3 29.1 22.9 92 0.9 NNW 2 2 1 1 1007.7 1007.6 11.6
05/03:00am 24.2 29.4 22.8 92 0.9 CALM 0 2 0 1 1007.5 1007.4 11.6
05/02:30am 24.3 29.5 22.9 92 0.9 CALM 0 0 0 0 1007.4 1007.3 11.6
05/02:00am 24.6 29.9 23.0 91 1.1 CALM 0 0 0 0 1008.1 1008.0 11.6
05/01:30am 24.8 30.1 23.0 90 1.2 CALM 0 0 0 0 1008.3 1008.2 11.6
05/01:00am 25.1 30.5 23.2 89 1.3 CALM 0 0 0 0 1008.9 1008.8 11.6
05/12:30am 25.4 30.8 23.3 88 1.4 CALM 0 0 0 0 1009.3 1009.2 11.6
05/12:00am 25.3 29.5 23.4 89 1.3 S 7 13 4 7 1009.7 1009.6 11.6
 
Date/Time
CST
Temp
°C
App
Temp
°C
Dew
Point
Rel
Hum
%
Delta-T
°C
Wind Press
QNH
hPa
Press
MSL
hPa
Rain
since 9 am
mm
Dir
 
Spd
km/h
Gust
km/h
Spd
kts
Gust
kts
04/11:30pm 25.3 29.0 23.9 92 1.0 SSE 11 15 6 8 1009.8 1009.7 11.6
04/11:00pm 24.8 29.0 23.2 91 1.1 S 6 7 3 4 1009.5 1009.4 11.6
04/10:30pm 24.9 30.3 23.3 91 1.1 CALM 0 0 0 0 1009.1 1009.0 11.6
04/10:00pm 25.0 30.4 23.2 90 1.2 CALM 0 0 0 0 1009.2 1009.1 11.6
04/09:30pm 25.0 30.5 23.4 91 1.1 CALM 0 2 0 1 1008.7 1008.6 11.6
04/09:00pm 25.0 30.4 23.2 90 1.2 CALM 0 0 0 0 1008.3 1008.2 11.6
04/08:30pm 24.8 30.0 22.9 89 1.3 CALM 0 0 0 0 1008.1 1008.0 11.6
04/08:00pm 24.8 29.3 23.0 90 1.2 WNW 4 6 2 3 1008.0 1007.9 11.6
04/07:30pm 24.8 28.7 22.9 89 1.3 W 7 11 4 6 1007.7 1007.6 11.6
04/07:00pm 25.4 28.5 23.6 90 1.2 W 13 20 7 11 1007.7 1007.6 11.6
04/06:30pm 25.7 29.3 23.7 89 1.4 WSW 11 15 6 8 1006.9 1006.8 11.6
04/06:00pm 25.5 28.5 23.4 88 1.4 WNW 13 22 7 12 1007.0 1006.9 11.6
04/05:30pm 26.7 28.4 23.4 82 2.3 NNE 20 33 11 18 1006.5 1006.4 10.0
04/05:22pm 28.6 30.4 22.6 70 4.1 NNE 17 37 9 20 1005.7 1005.6 1.0
04/05:00pm 33.8 37.1 23.8 56 7.0 N 13 17 7 9 1005.3 1005.2 0.0
04/04:30pm 33.8 38.2 23.8 56 7.0 N 7 11 4 6 1005.2 1005.1 0.0
04/04:00pm 34.7 40.2 24.6 55 7.1 E 4 7 2 4 1005.4 1005.3 0.0
04/03:30pm 33.6 38.3 23.9 57 6.8 ENE 6 11 3 6 1005.3 1005.2 0.0
04/03:00pm 33.3 38.6 25.0 61 5.9 NNE 6 11 3 6 1005.5 1005.4 0.0
04/02:30pm 32.9 38.0 24.1 60 6.2 NNE 4 7 2 4 1006.0 1005.9 0.0
04/02:00pm 31.5 36.6 24.6 67 4.8 NE 6 9 3 5 1006.6 1006.5 0.0
04/01:30pm 32.6 36.8 24.1 61 6.0 SE 9 13 5 7 1007.1 1007.0 0.0
04/01:00pm 33.0 37.6 24.2 60 6.2 NNE 7 13 4 7 1007.6 1007.5 0.0
04/12:30pm 32.5 38.3 24.5 62 5.6 NE 2 7 1 4 1008.1 1008.0 0.0
04/12:00pm 32.1 36.0 22.5 57 6.6 NNE 6 13 3 7 1008.3 1008.2 0.0
04/11:30am 32.1 37.0 24.4 63 5.4 NNW 6 9 3 5 1008.5 1008.4 0.0
04/11:00am 31.1 36.0 23.7 64 5.1 SSE 4 7 2 4 1008.8 1008.7 0.0
04/10:30am 30.6 35.9 24.3 69 4.4 ENE 4 9 2 5 1009.1 1009.0 0.0
04/10:00am 29.2 34.2 24.5 76 3.3 ENE 6 7 3 4 1009.1 1009.0 0.0
04/09:30am 28.4 34.9 25.0 82 2.4 CALM 0 2 0 1 1008.9 1008.8 0.0
04/09:00am 27.9 33.5 24.9 84 2.1 ENE 4 6 2 3 1008.6 1008.5 4.2
04/08:30am 27.4 33.9 25.0 87 1.7 CALM 0 2 0 1 1008.3 1008.2 4.2
04/08:00am 26.4 32.2 25.2 93 0.8 SSE 4 6 2 3 1008.2 1008.1 4.2
04/07:30am 25.8 32.0 24.6 93 0.8 CALM 0 2 0 1 1007.9 1007.8 4.2
04/07:00am 25.1 30.1 23.9 93 0.8 E 4 6 2 3 1007.5 1007.4 4.2
04/06:30am 24.9 30.5 23.5 92 1.0 CALM 0 0 0 0 1006.9 1006.8 4.2
04/06:00am 25.0 30.2 23.6 92 1.0 E 2 2 1 1 1006.7 1006.6 4.2
04/05:30am 25.5 30.4 24.3 93 0.8 ESE 6 7 3 4 1006.7 1006.6 4.2
04/05:00am 25.6 30.5 24.4 93 0.8 E 6 7 3 4 1006.3 1006.2 4.2
04/04:30am 25.4 30.1 24.0 92 1.0 E 6 6 3 3 1005.9 1005.8 4.2
04/04:00am 25.6 31.6 24.2 92 1.0 CALM 0 4 0 2 1005.8 1005.7 4.2
04/03:30am 25.6 31.6 24.2 92 1.0 CALM 0 0 0 0 1006.2 1006.1 4.2
04/03:00am 25.4 31.2 24.0 92 1.0 CALM 0 2 0 1 1006.4 1006.3 4.2
04/02:30am 25.4 30.1 24.0 92 1.0 E 6 7 3 4 1006.5 1006.4 4.2
04/02:00am 25.5 31.0 24.1 92 1.0 E 2 2 1 1 1006.6 1006.5 4.2
04/01:30am 25.3 30.6 23.7 91 1.1 ESE 2 6 1 3 1006.8 1006.7 4.2
04/01:00am 25.5 31.3 23.9 91 1.1 CALM 0 0 0 0 1007.0 1006.9 4.2
04/12:30am 25.3 29.8 23.7 91 1.1 ENE 6 7 3 4 1007.2 1007.1 4.2
04/12:00am 25.3 29.5 23.5 90 1.2 ENE 7 9 4 5 1007.1 1007.0 4.2
 
Date/Time
CST
Temp
°C
App
Temp
°C
Dew
Point
Rel
Hum
%
Delta-T
°C
Wind Press
QNH
hPa
Press
MSL
hPa
Rain
since 9 am
mm
Dir
 
Spd
km/h
Gust
km/h
Spd
kts
Gust
kts
03/11:30pm 25.3 29.7 23.4 89 1.3 ENE 6 7 3 4 1007.3 1007.2 4.2
03/11:00pm 25.7 29.6 23.6 88 1.4 ENE 9 13 5 7 1007.5 1007.4 4.2
03/10:30pm 25.9 29.8 23.6 87 1.6 NE 9 13 5 7 1007.3 1007.2 4.2
03/10:00pm 26.1 30.2 24.0 88 1.4 NNE 9 15 5 8 1007.1 1007.0 4.2
03/09:30pm 26.1 30.3 24.1 89 1.4 ENE 9 13 5 7 1006.8 1006.7 4.2
03/09:00pm 26.3 30.2 24.2 88 1.5 ENE 11 15 6 8 1006.6 1006.5 4.2
03/08:30pm 27.1 30.1 24.6 86 1.7 E 17 20 9 11 1006.2 1006.1 4.2
03/08:00pm 27.4 32.0 24.8 86 1.8 ENE 9 13 5 7 1006.2 1006.1 4.2
03/07:30pm 27.7 32.5 25.1 86 1.8 ENE 9 13 5 7 1006.0 1005.9 4.2
03/07:00pm 28.1 32.7 24.7 82 2.4 NE 9 13 5 7 1005.3 1005.2 4.2
03/06:30pm 28.5 33.1 24.7 80 2.7 NNE 9 13 5 7 1004.9 1004.8 4.2
03/06:00pm 28.6 31.8 24.4 78 2.9 NNE 15 22 8 12 1004.6 1004.5 4.2
03/05:30pm 30.3 32.7 24.2 70 4.3 NNE 19 24 10 13 1004.3 1004.2 4.2
03/05:00pm 30.5 32.9 24.2 69 4.4 NNE 19 26 10 14 1004.1 1004.0 4.2
03/04:30pm 30.8 32.7 23.7 66 4.9 NNE 20 26 11 14 1004.0 1003.9 4.2
03/04:00pm 30.7 32.6 24.4 69 4.4 NNE 22 28 12 15 1004.1 1004.0 4.2
03/03:30pm 30.9 33.7 25.0 71 4.2 NNE 19 28 10 15 1004.1 1004.0 4.2

Other Formats:

Comma delimited format used in spreadsheet applications
http://www.bom.gov.au/fwo/IDD60801/IDD60801.95121.axf

JavaScript Object Notation format (JSON) in row-major order
http://www.bom.gov.au/fwo/IDD60801/IDD60801.95121.json